Time;durP1;ratioP1;P1;durP2;ratioP2;P2;SDS_P1;SDS_P2;PMS_P1;PMS_P2;Temp;Humidity;BMP_temperature;BMP_pressure;BME280_temperature;BME280_humidity;BME280_pressure;Samples;Min_cycle;Max_cycle;Signal;HPM_P1;HPM_P2
2022/03/31 00:00:59;;;;;;;13.35;7.10;;;;;;;;;;10471190;27;20484;-58
2022/03/31 00:05:59;;;;;;;15.35;6.20;;;;;;;;;;10471078;27;20047;-57
2022/03/31 00:10:57;;;;;;;15.50;6.55;;;;;;;;;;10449450;27;20035;-59
2022/03/31 00:15:58;;;;;;;18.77;6.55;;;;;;;;;;10469908;27;20075;-58
2022/03/31 00:20:57;;;;;;;15.68;6.65;;;;;;;;;;10470167;27;20500;-58
2022/03/31 00:25:57;;;;;;;18.60;6.30;;;;;;;;;;10468499;27;20138;-57
2022/03/31 00:30:55;;;;;;;15.95;6.40;;;;;;;;;;10469049;27;20067;-58
2022/03/31 00:35:53;;;;;;;14.10;5.90;;;;;;;;;;10468595;27;20090;-59
2022/03/31 00:40:52;;;;;;;15.70;7.55;;;;;;;;;;10468676;27;20057;-57
2022/03/31 00:45:56;;;;;;;13.27;6.30;;;;;;;;;;10468602;27;20047;-58
2022/03/31 00:50:55;;;;;;;13.75;6.90;;;;;;;;;;10468902;27;20046;-58
2022/03/31 00:55:53;;;;;;;15.07;6.78;;;;;;;;;;10468608;27;20074;-59
2022/03/31 01:00:53;;;;;;;14.40;7.60;;;;;;;;;;10467205;27;20078;-58
2022/03/31 01:05:52;;;;;;;13.43;6.00;;;;;;;;;;10467457;27;20360;-58
2022/03/31 01:10:52;;;;;;;10.13;5.20;;;;;;;;;;10449498;27;20047;-58
2022/03/31 01:15:52;;;;;;;17.40;7.45;;;;;;;;;;10468113;27;20157;-58
2022/03/31 01:20:51;;;;;;;17.40;6.68;;;;;;;;;;10467251;27;20047;-58
2022/03/31 01:25:50;;;;;;;11.95;6.68;;;;;;;;;;10467876;27;20042;-59
2022/03/31 01:30:49;;;;;;;16.80;6.05;;;;;;;;;;10469675;27;20810;-57
2022/03/31 01:35:47;;;;;;;9.50;5.55;;;;;;;;;;10480584;27;20301;-58
2022/03/31 01:40:46;;;;;;;13.85;6.88;;;;;;;;;;10479617;27;20491;-58
2022/03/31 01:45:45;;;;;;;10.40;6.00;;;;;;;;;;10476500;27;20047;-53
2022/03/31 01:50:44;;;;;;;16.70;7.38;;;;;;;;;;10449038;27;20047;-59
2022/03/31 01:55:47;;;;;;;16.58;6.85;;;;;;;;;;10430887;27;20093;-58
2022/03/31 02:00:47;;;;;;;14.98;6.55;;;;;;;;;;10459902;27;20066;-58
2022/03/31 02:05:46;;;;;;;14.95;6.65;;;;;;;;;;10450255;27;20035;-58
2022/03/31 02:10:44;;;;;;;12.57;6.13;;;;;;;;;;10461690;27;20538;-58
2022/03/31 02:15:43;;;;;;;18.10;6.57;;;;;;;;;;10454472;27;20078;-58
2022/03/31 02:20:43;;;;;;;19.33;6.65;;;;;;;;;;10445856;27;20090;-59
2022/03/31 02:25:43;;;;;;;12.52;6.20;;;;;;;;;;10442760;27;20513;-59
2022/03/31 02:30:42;;;;;;;14.27;6.25;;;;;;;;;;10471123;27;20034;-59
2022/03/31 02:35:40;;;;;;;12.52;6.78;;;;;;;;;;10468989;27;20082;-59
2022/03/31 02:40:42;;;;;;;16.52;6.28;;;;;;;;;;10439314;27;20539;-58
2022/03/31 02:45:40;;;;;;;8.90;5.85;;;;;;;;;;10454049;27;20122;-58
2022/03/31 02:50:38;;;;;;;14.55;6.90;;;;;;;;;;10443187;27;20136;-59
2022/03/31 02:55:37;;;;;;;17.65;7.70;;;;;;;;;;10443204;27;20077;-58
2022/03/31 03:00:37;;;;;;;14.70;7.25;;;;;;;;;;10441394;27;20058;-58
2022/03/31 03:05:36;;;;;;;15.18;5.63;;;;;;;;;;10473368;27;20035;-59
2022/03/31 03:10:34;;;;;;;13.77;6.30;;;;;;;;;;10453346;27;20081;-56
2022/03/31 03:15:33;;;;;;;10.73;6.68;;;;;;;;;;10453270;27;20082;-60
2022/03/31 03:20:32;;;;;;;13.27;6.57;;;;;;;;;;10442799;27;20404;-59
2022/03/31 03:25:30;;;;;;;12.82;6.07;;;;;;;;;;10441445;27;20043;-59
2022/03/31 03:30:29;;;;;;;17.92;6.25;;;;;;;;;;10453797;27;20039;-58
2022/03/31 03:35:27;;;;;;;17.38;6.60;;;;;;;;;;10468787;27;20081;-59
2022/03/31 03:40:29;;;;;;;20.77;7.93;;;;;;;;;;10467218;27;20055;-59
2022/03/31 03:45:28;;;;;;;14.68;8.68;;;;;;;;;;10470782;27;20039;-59
2022/03/31 03:50:26;;;;;;;16.48;7.15;;;;;;;;;;10467202;27;20073;-58
2022/03/31 03:55:25;;;;;;;16.23;6.45;;;;;;;;;;10476654;27;20074;-57
2022/03/31 04:00:24;;;;;;;19.08;7.93;;;;;;;;;;10466898;27;20038;-58
2022/03/31 04:05:22;;;;;;;18.95;6.57;;;;;;;;;;10466256;27;20081;-59
2022/03/31 04:10:21;;;;;;;13.88;6.30;;;;;;;;;;10464774;27;20046;-58
2022/03/31 04:15:19;;;;;;;20.40;7.72;;;;;;;;;;10468236;27;20106;-58
2022/03/31 04:20:19;;;;;;;13.02;6.90;;;;;;;;;;10455002;27;20066;-58
2022/03/31 04:25:17;;;;;;;16.63;6.25;;;;;;;;;;10471750;27;20078;-58
2022/03/31 04:30:19;;;;;;;15.35;6.55;;;;;;;;;;10473206;27;20112;-58
2022/03/31 04:35:19;;;;;;;22.55;7.18;;;;;;;;;;10448367;27;20500;-58
2022/03/31 04:40:17;;;;;;;13.80;6.20;;;;;;;;;;10468605;27;20054;-58
2022/03/31 04:45:15;;;;;;;11.63;6.38;;;;;;;;;;10457343;27;20078;-58
2022/03/31 04:50:14;;;;;;;30.13;8.35;;;;;;;;;;10447093;27;20047;-57
2022/03/31 04:55:14;;;;;;;15.93;7.40;;;;;;;;;;10462809;27;20444;-59
2022/03/31 05:00:13;;;;;;;21.58;5.95;;;;;;;;;;10449802;27;20078;-59
2022/03/31 05:05:12;;;;;;;16.08;5.70;;;;;;;;;;10460285;27;20078;-59
2022/03/31 05:10:10;;;;;;;19.00;6.40;;;;;;;;;;10465210;27;20073;-59
2022/03/31 05:15:11;;;;;;;20.88;5.10;;;;;;;;;;10466194;27;20073;-59
2022/03/31 05:20:10;;;;;;;16.52;7.25;;;;;;;;;;10467149;27;20073;-59
2022/03/31 05:25:09;;;;;;;8.95;4.55;;;;;;;;;;10466228;27;20051;-60
2022/03/31 05:30:08;;;;;;;16.45;6.05;;;;;;;;;;10466978;27;20059;-58
2022/03/31 05:35:09;;;;;;;16.48;6.40;;;;;;;;;;10449273;27;20042;-58
2022/03/31 05:40:08;;;;;;;16.65;6.93;;;;;;;;;;10466209;27;20109;-58
2022/03/31 05:45:09;;;;;;;13.50;5.93;;;;;;;;;;10451514;27;20047;-58
2022/03/31 05:50:09;;;;;;;9.35;5.30;;;;;;;;;;10462388;27;20038;-59
2022/03/31 05:55:08;;;;;;;22.27;6.75;;;;;;;;;;10465558;27;20078;-58
2022/03/31 06:00:08;;;;;;;12.45;5.30;;;;;;;;;;10466444;27;20459;-59
2022/03/31 06:05:11;;;;;;;9.13;5.50;;;;;;;;;;10465060;27;20051;-60
2022/03/31 06:10:10;;;;;;;17.20;5.65;;;;;;;;;;10465715;27;20079;-60
2022/03/31 06:15:08;;;;;;;12.70;5.40;;;;;;;;;;10464859;27;20204;-58
2022/03/31 06:20:08;;;;;;;17.38;5.80;;;;;;;;;;10464720;27;20051;-58
2022/03/31 06:25:10;;;;;;;18.02;5.20;;;;;;;;;;10465670;27;20081;-58
2022/03/31 06:30:08;;;;;;;14.13;5.95;;;;;;;;;;10465411;27;20409;-58
2022/03/31 06:35:11;;;;;;;10.63;5.57;;;;;;;;;;10465265;27;20062;-58
2022/03/31 06:40:13;;;;;;;17.75;6.10;;;;;;;;;;10464715;27;20078;-58
2022/03/31 06:45:14;;;;;;;21.33;5.95;;;;;;;;;;10464797;27;20082;-58
2022/03/31 06:50:28;;;;;;;18.90;6.25;;;;;;;;;;10465805;27;20043;-58
2022/03/31 06:55:28;;;;;;;17.10;7.28;;;;;;;;;;10465148;27;20480;-58
2022/03/31 07:00:27;;;;;;;21.70;5.68;;;;;;;;;;10466638;27;20077;-58
2022/03/31 07:05:25;;;;;;;13.45;5.88;;;;;;;;;;10471859;27;20047;-58
2022/03/31 07:10:23;;;;;;;17.65;5.65;;;;;;;;;;10472451;27;20068;-57
2022/03/31 07:15:24;;;;;;;19.25;6.78;;;;;;;;;;10471130;27;20081;-58
2022/03/31 07:20:22;;;;;;;16.65;5.35;;;;;;;;;;10470576;27;20089;-58
2022/03/31 07:25:21;;;;;;;17.92;5.90;;;;;;;;;;10485544;27;20038;-58
2022/03/31 07:30:21;;;;;;;19.00;6.28;;;;;;;;;;10485105;27;20309;-58
2022/03/31 07:35:22;;;;;;;21.73;6.53;;;;;;;;;;10484559;27;20050;-58
2022/03/31 07:40:21;;;;;;;22.92;5.53;;;;;;;;;;10469771;27;20086;-59
2022/03/31 07:45:20;;;;;;;19.13;6.03;;;;;;;;;;10471682;27;20169;-59
2022/03/31 07:50:19;;;;;;;25.35;5.47;;;;;;;;;;10471229;27;20039;-59
2022/03/31 07:55:20;;;;;;;24.42;5.38;;;;;;;;;;10470412;27;20081;-59
2022/03/31 08:00:20;;;;;;;22.92;6.47;;;;;;;;;;10470078;27;20101;-58
2022/03/31 08:05:19;;;;;;;15.07;5.88;;;;;;;;;;10484078;27;20031;-59
2022/03/31 08:10:19;;;;;;;20.17;5.32;;;;;;;;;;10482817;27;20057;-59
2022/03/31 08:15:18;;;;;;;17.40;6.55;;;;;;;;;;10483520;27;20046;-59
2022/03/31 08:20:17;;;;;;;16.08;5.38;;;;;;;;;;10469860;27;20074;-59
2022/03/31 08:25:17;;;;;;;16.27;6.28;;;;;;;;;;10468567;27;20042;-59
2022/03/31 08:30:19;;;;;;;21.85;6.28;;;;;;;;;;10469904;27;20405;-59
2022/03/31 08:35:18;;;;;;;20.60;6.30;;;;;;;;;;10469056;27;20152;-59
2022/03/31 08:40:16;;;;;;;21.00;5.88;;;;;;;;;;10467856;27;20086;-59
2022/03/31 08:45:16;;;;;;;20.05;6.93;;;;;;;;;;10451582;27;20059;-59
2022/03/31 08:50:16;;;;;;;14.50;5.53;;;;;;;;;;10466540;27;20074;-59
2022/03/31 08:55:14;;;;;;;15.18;5.55;;;;;;;;;;10468732;27;20066;-59
2022/03/31 09:00:14;;;;;;;26.20;6.25;;;;;;;;;;10466816;27;20074;-58
2022/03/31 09:05:12;;;;;;;18.83;8.02;;;;;;;;;;10467805;27;20065;-58
2022/03/31 09:10:12;;;;;;;17.10;6.15;;;;;;;;;;10467573;27;20081;-59
2022/03/31 09:15:10;;;;;;;17.25;6.70;;;;;;;;;;10467445;27;20082;-58
2022/03/31 09:20:09;;;;;;;20.17;5.93;;;;;;;;;;10466598;27;20074;-59
2022/03/31 09:25:08;;;;;;;26.85;7.32;;;;;;;;;;10466523;27;20472;-58
2022/03/31 09:30:08;;;;;;;19.65;5.97;;;;;;;;;;10467010;27;20078;-58
2022/03/31 09:35:07;;;;;;;16.70;6.25;;;;;;;;;;10466629;27;20043;-58
2022/03/31 09:40:06;;;;;;;20.92;6.55;;;;;;;;;;10465698;27;20101;-58
2022/03/31 09:45:08;;;;;;;22.08;6.65;;;;;;;;;;10466957;27;20543;-57
2022/03/31 09:50:08;;;;;;;21.33;6.53;;;;;;;;;;10466302;27;20038;-58
2022/03/31 09:55:06;;;;;;;21.90;9.68;;;;;;;;;;10466563;27;20035;-58
2022/03/31 10:00:07;;;;;;;14.50;6.90;;;;;;;;;;10466290;27;20082;-58
2022/03/31 10:05:10;;;;;;;26.23;9.23;;;;;;;;;;10466452;27;20058;-57
2022/03/31 10:10:09;;;;;;;24.25;7.70;;;;;;;;;;10465793;27;20051;-59
2022/03/31 10:15:10;;;;;;;17.90;5.53;;;;;;;;;;10465361;27;20399;-58
2022/03/31 10:20:10;;;;;;;21.10;6.70;;;;;;;;;;10465696;27;20074;-58
2022/03/31 10:25:10;;;;;;;24.38;6.30;;;;;;;;;;10466430;27;20043;-59
2022/03/31 10:30:15;;;;;;;25.63;8.07;;;;;;;;;;10465531;27;20046;-58
2022/03/31 10:35:22;;;;;;;20.25;5.95;;;;;;;;;;10468633;27;20456;-58
2022/03/31 10:40:31;;;;;;;15.60;5.45;;;;;;;;;;10472945;27;20104;-58
2022/03/31 10:45:34;;;;;;;18.05;5.95;;;;;;;;;;10456266;27;20078;-58
2022/03/31 10:50:34;;;;;;;25.42;10.20;;;;;;;;;;10474691;27;20148;-58
2022/03/31 10:55:37;;;;;;;22.13;7.55;;;;;;;;;;10474146;27;20075;-58
2022/03/31 11:00:36;;;;;;;27.02;7.47;;;;;;;;;;10454598;27;20086;-58
2022/03/31 11:05:40;;;;;;;25.90;7.63;;;;;;;;;;10472742;27;20066;-56
2022/03/31 11:10:42;;;;;;;26.85;7.05;;;;;;;;;;10443185;27;20043;-58
2022/03/31 11:15:41;;;;;;;30.83;10.93;;;;;;;;;;10471403;27;20066;-58
2022/03/31 11:20:40;;;;;;;21.02;8.20;;;;;;;;;;10471933;27;20495;-58
2022/03/31 11:25:43;;;;;;;20.83;7.05;;;;;;;;;;10454368;27;20054;-58
2022/03/31 11:30:43;;;;;;;21.65;7.07;;;;;;;;;;10454296;27;20067;-58
2022/03/31 11:35:43;;;;;;;24.30;6.90;;;;;;;;;;10468982;27;20081;-59
2022/03/31 11:40:43;;;;;;;17.92;6.43;;;;;;;;;;10471556;27;20086;-58
2022/03/31 11:45:43;;;;;;;20.17;6.07;;;;;;;;;;10469305;27;20545;-58
2022/03/31 11:50:50;;;;;;;24.73;7.18;;;;;;;;;;10471093;27;20078;-59
2022/03/31 11:56:04;;;;;;;19.27;6.13;;;;;;;;;;10450893;27;20035;-59
2022/03/31 12:01:03;;;;;;;25.00;6.57;;;;;;;;;;10451594;27;20062;-58
2022/03/31 12:06:04;;;;;;;17.58;6.07;;;;;;;;;;10440384;27;20046;-58
2022/03/31 12:11:02;;;;;;;21.15;5.95;;;;;;;;;;10440676;27;20063;-58
2022/03/31 12:16:05;;;;;;;17.73;5.47;;;;;;;;;;10450799;27;20480;-58
2022/03/31 12:21:06;;;;;;;17.33;6.38;;;;;;;;;;10450483;27;20062;-58
2022/03/31 12:26:12;;;;;;;19.55;6.90;;;;;;;;;;10440258;27;20083;-58
2022/03/31 12:31:19;;;;;;;21.83;6.93;;;;;;;;;;10466856;27;20370;-58
2022/03/31 12:36:23;;;;;;;35.83;10.50;;;;;;;;;;10469585;27;20035;-58
2022/03/31 12:41:23;;;;;;;18.98;5.50;;;;;;;;;;10468681;27;20071;-58
2022/03/31 12:46:22;;;;;;;23.50;6.97;;;;;;;;;;10469278;27;20059;-59
2022/03/31 12:51:22;;;;;;;22.75;7.10;;;;;;;;;;10468880;27;20419;-58
2022/03/31 12:56:24;;;;;;;22.58;6.32;;;;;;;;;;10468008;27;20093;-58
2022/03/31 13:01:25;;;;;;;24.73;7.07;;;;;;;;;;10466719;27;20072;-59
2022/03/31 13:06:25;;;;;;;23.27;8.05;;;;;;;;;;10466593;27;20503;-60
2022/03/31 13:11:23;;;;;;;20.27;7.38;;;;;;;;;;10467388;27;20507;-59
2022/03/31 13:16:21;;;;;;;17.33;6.63;;;;;;;;;;10472261;27;20513;-59
2022/03/31 13:21:20;;;;;;;20.95;7.82;;;;;;;;;;10481523;27;20486;-59
2022/03/31 13:26:20;;;;;;;18.98;6.15;;;;;;;;;;10479906;27;20498;-59
2022/03/31 13:31:18;;;;;;;24.25;6.63;;;;;;;;;;10476871;27;20038;-58
2022/03/31 13:36:17;;;;;;;19.05;6.55;;;;;;;;;;10466942;27;20073;-58
2022/03/31 13:41:15;;;;;;;25.77;7.63;;;;;;;;;;10466357;27;20074;-59
2022/03/31 13:46:15;;;;;;;28.58;10.55;;;;;;;;;;10466939;27;20058;-59
2022/03/31 13:51:13;;;;;;;24.25;7.60;;;;;;;;;;10466779;27;20031;-60
2022/03/31 13:56:11;;;;;;;31.60;8.77;;;;;;;;;;10466885;27;20067;-59
2022/03/31 14:01:10;;;;;;;28.13;8.80;;;;;;;;;;10466323;27;20078;-59
2022/03/31 14:06:13;;;;;;;26.27;8.70;;;;;;;;;;10465995;27;20090;-57
2022/03/31 14:11:17;;;;;;;26.63;8.13;;;;;;;;;;10470678;27;20036;-58
2022/03/31 14:16:16;;;;;;;25.38;7.40;;;;;;;;;;10475068;27;20071;-59
2022/03/31 14:21:16;;;;;;;38.72;8.73;;;;;;;;;;10456224;27;20074;-59
2022/03/31 14:26:14;;;;;;;30.23;7.47;;;;;;;;;;10474898;27;20066;-59
2022/03/31 14:31:15;;;;;;;28.33;8.05;;;;;;;;;;10473440;27;20050;-60
2022/03/31 14:36:32;;;;;;;39.38;8.85;;;;;;;;;;10474681;27;20038;-59
2022/03/31 14:41:31;;;;;;;37.70;8.68;;;;;;;;;;10473022;27;20494;-59
2022/03/31 14:46:34;;;;;;;36.63;8.73;;;;;;;;;;10474145;27;20050;-59
2022/03/31 14:51:34;;;;;;;35.97;9.32;;;;;;;;;;10473030;27;20542;-58
2022/03/31 14:56:32;;;;;;;33.85;8.23;;;;;;;;;;10473683;27;20046;-60
2022/03/31 15:01:30;;;;;;;26.15;8.93;;;;;;;;;;10473671;27;20619;-58
2022/03/31 15:06:30;;;;;;;29.33;8.45;;;;;;;;;;10473196;27;20066;-58
2022/03/31 15:16:45;;;;;;;23.65;8.77;;;;;;;;;;10473389;27;20518;-59
2022/03/31 15:21:44;;;;;;;38.50;9.30;;;;;;;;;;10471583;27;20070;-59
2022/03/31 15:26:44;;;;;;;45.22;12.13;;;;;;;;;;10473301;27;20499;-59
2022/03/31 15:31:45;;;;;;;42.15;13.68;;;;;;;;;;10470342;27;20447;-59
2022/03/31 15:36:44;;;;;;;37.55;12.32;;;;;;;;;;10472892;27;20042;-59
2022/03/31 15:41:44;;;;;;;33.70;9.85;;;;;;;;;;10471987;27;20074;-57
2022/03/31 15:46:42;;;;;;;41.42;10.07;;;;;;;;;;10472741;27;20046;-58
2022/03/31 15:51:41;;;;;;;36.20;10.18;;;;;;;;;;10471809;27;20510;-58
2022/03/31 15:56:40;;;;;;;29.80;9.50;;;;;;;;;;10471501;27;20070;-58
2022/03/31 16:01:40;;;;;;;62.78;13.85;;;;;;;;;;10471843;27;20059;-58
2022/03/31 16:06:40;;;;;;;37.95;12.68;;;;;;;;;;10471589;27;20043;-58
2022/03/31 16:11:38;;;;;;;28.55;10.10;;;;;;;;;;10471023;27;20069;-59
2022/03/31 16:16:40;;;;;;;31.70;8.52;;;;;;;;;;10471371;27;20038;-59
2022/03/31 16:21:38;;;;;;;23.25;10.30;;;;;;;;;;10471176;27;20058;-60
2022/03/31 16:26:36;;;;;;;25.55;9.27;;;;;;;;;;10470779;27;20035;-59
2022/03/31 16:31:35;;;;;;;29.05;7.78;;;;;;;;;;10439307;27;20070;-59
2022/03/31 16:36:35;;;;;;;32.72;9.18;;;;;;;;;;10445396;27;20062;-58
2022/03/31 16:41:33;;;;;;;38.10;15.55;;;;;;;;;;10439185;27;20085;-59
2022/03/31 16:46:37;;;;;;;22.40;10.07;;;;;;;;;;10444672;27;20039;-58
2022/03/31 16:51:37;;;;;;;24.58;9.10;;;;;;;;;;10468693;27;20089;-59
2022/03/31 16:56:35;;;;;;;26.23;7.68;;;;;;;;;;10469575;27;20544;-58
2022/03/31 17:01:36;;;;;;;22.55;7.93;;;;;;;;;;10469015;27;20070;-58
2022/03/31 17:06:37;;;;;;;23.73;9.35;;;;;;;;;;10438768;27;20474;-58
2022/03/31 17:11:36;;;;;;;27.80;9.13;;;;;;;;;;10444444;27;20066;-59
2022/03/31 17:16:34;;;;;;;23.02;7.38;;;;;;;;;;10438465;27;20071;-59
2022/03/31 17:21:33;;;;;;;19.63;8.07;;;;;;;;;;10467530;27;20073;-58
2022/03/31 17:26:32;;;;;;;22.33;7.00;;;;;;;;;;10467343;27;20063;-58
2022/03/31 17:31:31;;;;;;;34.95;9.27;;;;;;;;;;10467773;27;20073;-58
2022/03/31 17:36:29;;;;;;;36.65;8.48;;;;;;;;;;10467428;27;20054;-58
2022/03/31 17:41:30;;;;;;;22.92;6.65;;;;;;;;;;10447569;27;20070;-58
2022/03/31 17:46:29;;;;;;;28.42;7.00;;;;;;;;;;10465531;27;20062;-58
2022/03/31 17:51:28;;;;;;;27.70;8.55;;;;;;;;;;10460726;27;20444;-59
2022/03/31 17:56:26;;;;;;;33.33;12.38;;;;;;;;;;10468681;27;20119;-59
2022/03/31 18:01:24;;;;;;;28.52;9.43;;;;;;;;;;10452005;27;20081;-58
2022/03/31 18:06:24;;;;;;;23.25;9.68;;;;;;;;;;10449834;27;20039;-58
2022/03/31 18:11:24;;;;;;;30.92;10.35;;;;;;;;;;10465904;27;20435;-58
2022/03/31 18:16:23;;;;;;;29.55;8.95;;;;;;;;;;10465733;27;20055;-59
2022/03/31 18:21:21;;;;;;;30.52;8.70;;;;;;;;;;10444267;27;20058;-58
2022/03/31 18:26:25;;;;;;;41.28;10.43;;;;;;;;;;10471539;27;20058;-58
2022/03/31 18:36:41;;;;;;;31.58;8.07;;;;;;;;;;10463578;27;20070;-58
2022/03/31 18:41:44;;;;;;;40.70;10.35;;;;;;;;;;10453983;27;20082;-58
2022/03/31 18:46:42;;;;;;;45.47;10.68;;;;;;;;;;10435947;27;20042;-58
2022/03/31 18:51:42;;;;;;;34.35;9.48;;;;;;;;;;10435969;27;20086;-58
2022/03/31 18:56:42;;;;;;;30.48;10.75;;;;;;;;;;10439579;27;20534;-58
2022/03/31 19:01:41;;;;;;;25.67;8.60;;;;;;;;;;10444555;27;20075;-59
2022/03/31 19:12:05;;;;;;;31.35;8.48;;;;;;;;;;10404526;27;20737;-56
2022/03/31 19:17:04;;;;;;;25.45;7.95;;;;;;;;;;10423548;27;20519;-58
2022/03/31 19:22:02;;;;;;;33.75;8.93;;;;;;;;;;10442782;27;20145;-59
2022/03/31 19:27:01;;;;;;;25.70;7.93;;;;;;;;;;10446908;27;20067;-59
2022/03/31 19:32:01;;;;;;;26.13;7.45;;;;;;;;;;10453243;27;20503;-56
2022/03/31 19:36:59;;;;;;;24.45;9.57;;;;;;;;;;10469025;27;20461;-58
2022/03/31 19:42:17;;;;;;;31.15;8.85;;;;;;;;;;10446700;27;20078;-59
2022/03/31 19:47:17;;;;;;;28.80;7.82;;;;;;;;;;10453605;27;20472;-58
2022/03/31 19:52:15;;;;;;;44.20;8.73;;;;;;;;;;10474657;27;20441;-57
2022/03/31 19:57:13;;;;;;;31.88;8.57;;;;;;;;;;10476934;27;20058;-59
2022/03/31 20:02:12;;;;;;;25.50;8.00;;;;;;;;;;10451305;27;20081;-59
2022/03/31 20:07:11;;;;;;;27.70;8.20;;;;;;;;;;10471583;27;20031;-58
2022/03/31 20:12:10;;;;;;;41.40;8.65;;;;;;;;;;10448808;27;20074;-58
2022/03/31 20:17:08;;;;;;;34.60;7.60;;;;;;;;;;10471431;27;20069;-58
2022/03/31 20:22:06;;;;;;;26.33;7.78;;;;;;;;;;10479295;27;20069;-59
2022/03/31 20:27:07;;;;;;;31.10;9.23;;;;;;;;;;10483341;27;20046;-59
2022/03/31 20:32:05;;;;;;;30.63;9.35;;;;;;;;;;10483880;27;20042;-57
2022/03/31 20:37:04;;;;;;;32.05;8.50;;;;;;;;;;10471624;27;20484;-58
2022/03/31 20:42:03;;;;;;;27.77;8.82;;;;;;;;;;10455829;27;20157;-58
2022/03/31 20:47:03;;;;;;;24.88;7.07;;;;;;;;;;10475330;27;20067;-58
2022/03/31 20:52:04;;;;;;;30.13;8.32;;;;;;;;;;10474926;27;20455;-58
2022/03/31 20:57:02;;;;;;;36.00;7.82;;;;;;;;;;10474715;27;20039;-58
2022/03/31 21:02:01;;;;;;;38.10;7.97;;;;;;;;;;10474212;27;20066;-58
2022/03/31 21:07:01;;;;;;;40.28;7.45;;;;;;;;;;10474904;27;20062;-58
2022/03/31 21:12:01;;;;;;;33.70;7.72;;;;;;;;;;10448888;27;20071;-58
2022/03/31 21:16:59;;;;;;;26.13;9.27;;;;;;;;;;10469261;27;20054;-58
2022/03/31 21:21:58;;;;;;;24.88;9.07;;;;;;;;;;10467171;27;20071;-59
2022/03/31 21:26:58;;;;;;;33.53;9.10;;;;;;;;;;10468520;27;20051;-59
2022/03/31 21:31:56;;;;;;;25.17;7.82;;;;;;;;;;10449245;27;20514;-59
2022/03/31 21:36:55;;;;;;;28.38;7.90;;;;;;;;;;10467679;27;20089;-59
2022/03/31 21:41:53;;;;;;;32.80;9.05;;;;;;;;;;10474145;27;20086;-59
2022/03/31 21:46:53;;;;;;;21.65;7.63;;;;;;;;;;10479350;27;20070;-58
2022/03/31 21:51:51;;;;;;;27.67;7.95;;;;;;;;;;10480818;27;20039;-58
2022/03/31 21:56:50;;;;;;;26.58;9.50;;;;;;;;;;10473972;27;20045;-58
2022/03/31 22:01:50;;;;;;;23.48;8.73;;;;;;;;;;10467879;27;20075;-58
2022/03/31 22:06:49;;;;;;;30.83;8.07;;;;;;;;;;10467430;27;20042;-57
2022/03/31 22:11:50;;;;;;;29.75;7.43;;;;;;;;;;10467704;27;20046;-58
2022/03/31 22:16:50;;;;;;;28.15;7.47;;;;;;;;;;10454482;27;20059;-57
2022/03/31 22:21:51;;;;;;;30.40;8.68;;;;;;;;;;10480054;27;20554;-58
2022/03/31 22:26:49;;;;;;;28.70;6.65;;;;;;;;;;10480086;27;20058;-58
2022/03/31 22:31:49;;;;;;;26.77;7.25;;;;;;;;;;10478041;27;20070;-58
2022/03/31 22:36:47;;;;;;;25.70;7.53;;;;;;;;;;10474753;27;20054;-58
2022/03/31 22:41:47;;;;;;;27.08;6.57;;;;;;;;;;10438284;27;20460;-57
2022/03/31 22:46:46;;;;;;;22.77;6.40;;;;;;;;;;10474305;27;20101;-57
2022/03/31 22:51:44;;;;;;;33.10;6.97;;;;;;;;;;10473531;27;20038;-57
2022/03/31 22:56:44;;;;;;;23.92;6.60;;;;;;;;;;10473633;27;20415;-58
2022/03/31 23:01:46;;;;;;;22.60;6.00;;;;;;;;;;10474143;27;20065;-58
2022/03/31 23:06:44;;;;;;;26.98;6.43;;;;;;;;;;10478992;27;20078;-58
2022/03/31 23:11:42;;;;;;;25.00;7.32;;;;;;;;;;10486478;27;20053;-58
2022/03/31 23:16:41;;;;;;;25.83;6.80;;;;;;;;;;10467094;27;20432;-58
2022/03/31 23:21:41;;;;;;;20.98;5.70;;;;;;;;;;10480210;27;20056;-58
2022/03/31 23:26:39;;;;;;;23.60;5.50;;;;;;;;;;10473520;27;20070;-58
2022/03/31 23:31:38;;;;;;;23.65;5.18;;;;;;;;;;10463974;27;20081;-58
2022/03/31 23:36:36;;;;;;;18.33;5.35;;;;;;;;;;10472687;27;20172;-58
2022/03/31 23:41:36;;;;;;;30.98;6.75;;;;;;;;;;10451066;27;20077;-58
2022/03/31 23:46:34;;;;;;;19.27;4.93;;;;;;;;;;10442083;27;20067;-58
2022/03/31 23:51:33;;;;;;;24.63;5.95;;;;;;;;;;10447262;27;20088;-58
2022/03/31 23:56:31;;;;;;;21.50;6.65;;;;;;;;;;10471370;27;20474;-58
